Ios I — 9HA3242 — position and weather

sailwx.info

Track history (hours):
 
Tides and Currents Weather Stations Pressure Air Temp Water Temp Dewpoint Dewpoint Depression Visibility Wind Speed Wind Dir Waves Ship Positions

Ios I

Last reported at 2018-Feb-25 08:15 UTC. Time now 2018-Feb-25 10:07 UTC.
Position N 36°08' W 005°22'.

Length 91 m; draft 6.1 m.

MMSI: 229332000.

Date/timePositionNaut miles runAvg speedWind from/ knotsBaromVisibWave heightAir tempDewpointWater temp
2018-Feb-25 08:15N 36°08' W 005°22'0 0.0
2018-Feb-25 07:39N 36°08' W 005°22'0 0.2
2018-Feb-25 07:15N 36°08' W 005°22'0 0.2
2018-Feb-25 06:53N 36°08' W 005°22'0 0.0
2018-Feb-25 06:27N 36°08' W 005°22'0 0.1
2018-Feb-25 05:57N 36°08' W 005°22'0 0.0
2018-Feb-25 05:30N 36°08' W 005°22'0 0.2
2018-Feb-25 04:57N 36°08' W 005°22'0 0.1
2018-Feb-25 04:27N 36°08' W 005°22'0 0.2
2018-Feb-25 03:57N 36°07' W 005°22'0 0.1
2018-Feb-25 03:27N 36°07' W 005°22'0 0.1
2018-Feb-25 02:53N 36°07' W 005°22'0 0.5
2018-Feb-25 02:30N 36°08' W 005°22'2 3.4
2018-Feb-25 02:00N 36°09' W 005°22'0 0.0
2018-Feb-25 01:30N 36°09' W 005°22'0 0.0
2018-Feb-25 01:00N 36°09' W 005°22'0 0.0
2018-Feb-25 00:27N 36°09' W 005°22'0 0.0
2018-Feb-24 23:55N 36°09' W 005°22'0 0.1
2018-Feb-24 23:25N 36°09' W 005°22'0 0.1
2018-Feb-24 23:00N 36°09' W 005°22'0 0.0
2018-Feb-24 22:24N 36°09' W 005°22'0 0.0
2018-Feb-24 22:00N 36°09' W 005°22'0 0.0
2018-Feb-24 21:30N 36°09' W 005°22'0 0.1
2018-Feb-24 20:55N 36°09' W 005°22'3 0.4
2018-Feb-24 14:07N 36°06' W 005°22'0 0.1
2018-Feb-24 13:58N 36°06' W 005°22'0 0.0
2018-Feb-24 13:30N 36°06' W 005°22'3 0.5
2018-Feb-24 07:14N 36°09' W 005°22'1 3.8
2018-Feb-24 07:00N 36°08' W 005°22'2 3.1
2018-Feb-24 06:28N 36°07' W 005°22'0 0.1
2018-Feb-24 05:58N 36°07' W 005°22'0 0.1
2018-Feb-24 05:29N 36°07' W 005°22'0 0.0
2018-Feb-24 04:55N 36°07' W 005°22'0 0.2
2018-Feb-24 04:28N 36°07' W 005°22'0 0.1
2018-Feb-24 03:58N 36°07' W 005°22'0 0.1
2018-Feb-24 03:28N 36°07' W 005°22'0 0.0
2018-Feb-24 02:55N 36°07' W 005°22'0 0.5
2018-Feb-24 02:30N 36°07' W 005°22'1 2.4
2018-Feb-24 02:00N 36°08' W 005°23'1 2.9
2018-Feb-24 01:29N 36°09' W 005°22'0 0.0
2018-Feb-24 00:59N 36°09' W 005°22'0 0.0
2018-Feb-24 00:29N 36°09' W 005°22'0 0.0
2018-Feb-23 23:56N 36°09' W 005°22'0 0.0
2018-Feb-23 23:20N 36°09' W 005°22'0 0.0
2018-Feb-23 23:00N 36°09' W 005°22'0 0.0
2018-Feb-23 22:23N 36°09' W 005°22'0 0.1
2018-Feb-23 22:00N 36°09' W 005°22'0 0.0
2018-Feb-23 21:29N 36°09' W 005°22'0 0.0
2018-Feb-23 20:56N 36°09' W 005°22'0 0.0
2018-Feb-23 20:23N 36°09' W 005°22'0 0.0
2018-Feb-23 19:56N 36°09' W 005°22'0 0.0
2018-Feb-23 19:11N 36°09' W 005°22'6 0.8
2018-Feb-23 11:53N 36°04' W 005°23'410.6
2018-Feb-23 11:30N 35°60' W 005°25'4 0.2
2018-Feb-22 08:58N 35°58' W 005°29'4 7.8
2018-Feb-22 08:29N 36°01' W 005°26'4 8.4
2018-Feb-22 07:59N 36°04' W 005°23'4 3.4
2018-Feb-22 06:48N 36°08' W 005°22'0 0.1
2018-Feb-22 06:30N 36°08' W 005°22'0 0.0
2018-Feb-22 05:57N 36°08' W 005°22'0 0.1
2018-Feb-22 04:40N 36°08' W 005°22'0 0.3
2018-Feb-22 04:30N 36°08' W 005°22'0 1.0
2018-Feb-22 04:00N 36°08' W 005°22'0 0.2
2018-Feb-22 03:27N 36°08' W 005°22'0 0.1
2018-Feb-22 02:58N 36°08' W 005°22'0 0.0
2018-Feb-22 02:27N 36°08' W 005°22'0 0.0
2018-Feb-22 02:00N 36°08' W 005°22'0 0.2
2018-Feb-22 01:30N 36°08' W 005°22'0 0.3
2018-Feb-22 01:00N 36°08' W 005°22'0 0.2
2018-Feb-22 00:30N 36°08' W 005°22'0 0.0
2018-Feb-21 23:53N 36°08' W 005°22'0 0.0
2018-Feb-21 23:30N 36°08' W 005°22'0 0.0
2018-Feb-21 23:00N 36°08' W 005°22'0 0.1
2018-Feb-21 22:30N 36°08' W 005°22'0 0.1
2018-Feb-21 21:59N 36°08' W 005°22'0 0.0
2018-Feb-21 21:25N 36°08' W 005°22'0 0.0
2018-Feb-21 20:51N 36°08' W 005°22'0 0.1
2018-Feb-21 20:30N 36°08' W 005°22'0 0.1
2018-Feb-21 19:49N 36°08' W 005°22'1 2.7
2018-Feb-21 19:31N 36°09' W 005°23'1 1.5
2018-Feb-21 18:59N 36°09' W 005°22'1 0.0
2018-Feb-21 03:17N 36°09' W 005°22'0 0.0
2018-Feb-21 02:49N 36°09' W 005°22'0 0.0
2018-Feb-21 02:15N 36°09' W 005°22'0 0.0
2018-Feb-21 01:49N 36°09' W 005°22'0 0.0
2018-Feb-21 01:25N 36°09' W 005°22'0 0.0
2018-Feb-21 00:55N 36°09' W 005°22'0 0.0
2018-Feb-20 22:53N 36°09' W 005°22'0 0.0
2018-Feb-20 20:39N 36°09' W 005°22'0 0.0
2018-Feb-20 20:14N 36°09' W 005°22'0 0.0
2018-Feb-20 19:50N 36°09' W 005°22'0 0.0
2018-Feb-20 19:19N 36°09' W 005°22'1 0.6
2018-Feb-20 16:51N 36°07' W 005°22'2 0.2
2018-Feb-20 03:55N 36°09' W 005°22'2 5.4
2018-Feb-20 03:30N 36°07' W 005°22'1 0.8
2018-Feb-20 02:52N 36°07' W 005°21'0 0.1
2018-Feb-20 00:46N 36°07' W 005°21'0 0.1
2018-Feb-20 00:28N 36°07' W 005°21'0 0.0
2018-Feb-19 23:58N 36°07' W 005°21'0 0.0
2018-Feb-19 23:28N 36°07' W 005°21'0 0.1
2018-Feb-19 22:52N 36°07' W 005°21'0 0.3
2018-Feb-19 22:19N 36°07' W 005°21'0 0.0
2018-Feb-19 21:52N 36°07' W 005°21'0 0.1
2018-Feb-19 20:43N 36°07' W 005°21'1 4.1
2018-Feb-19 20:30N 36°07' W 005°22'2 3.5
2018-Feb-19 19:57N 36°09' W 005°23'1 0.2
2018-Feb-19 16:27N 36°08' W 005°23'1 0.2
2018-Feb-19 10:12N 36°07' W 005°22'  
2018-Feb-15 23:17N 36°09' W 005°22'0 0.0
2018-Feb-15 22:56N 36°09' W 005°22'0 0.0
2018-Feb-15 22:29N 36°09' W 005°22'0 0.2
2018-Feb-15 22:01N 36°09' W 005°22'3 6.4
2018-Feb-15 21:31N 36°06' W 005°22'5 9.6
2018-Feb-15 21:00N 36°01' W 005°23'611.1
2018-Feb-15 20:28N 35°56' W 005°28'  
Track history (hours):
 
Tides and Currents Weather Stations Pressure Air Temp Water Temp Dewpoint Dewpoint Depression Visibility Wind Speed Wind Dir Waves Ship Positions

Ios I

Last reported at 2018-Feb-25 08:15 UTC. Time now 2018-Feb-25 10:07 UTC.
Position N 36°08' W 005°22'.

Length 91 m; draft 6.1 m.

MMSI: 229332000.

Date/timePositionNaut miles runAvg speedWind from/ knotsBaromVisibWave heightAir tempDewpointWater temp
2018-Feb-25 08:15N 36°08' W 005°22'0 0.0
2018-Feb-25 07:39N 36°08' W 005°22'0 0.2
2018-Feb-25 07:15N 36°08' W 005°22'0 0.2
2018-Feb-25 06:53N 36°08' W 005°22'0 0.0
2018-Feb-25 06:27N 36°08' W 005°22'0 0.1
2018-Feb-25 05:57N 36°08' W 005°22'0 0.0
2018-Feb-25 05:30N 36°08' W 005°22'0 0.2
2018-Feb-25 04:57N 36°08' W 005°22'0 0.1
2018-Feb-25 04:27N 36°08' W 005°22'0 0.2
2018-Feb-25 03:57N 36°07' W 005°22'0 0.1
2018-Feb-25 03:27N 36°07' W 005°22'0 0.1
2018-Feb-25 02:53N 36°07' W 005°22'0 0.5
2018-Feb-25 02:30N 36°08' W 005°22'2 3.4
2018-Feb-25 02:00N 36°09' W 005°22'0 0.0
2018-Feb-25 01:30N 36°09' W 005°22'0 0.0
2018-Feb-25 01:00N 36°09' W 005°22'0 0.0
2018-Feb-25 00:27N 36°09' W 005°22'0 0.0
2018-Feb-24 23:55N 36°09' W 005°22'0 0.1
2018-Feb-24 23:25N 36°09' W 005°22'0 0.1
2018-Feb-24 23:00N 36°09' W 005°22'0 0.0
2018-Feb-24 22:24N 36°09' W 005°22'0 0.0
2018-Feb-24 22:00N 36°09' W 005°22'0 0.0
2018-Feb-24 21:30N 36°09' W 005°22'0 0.1
2018-Feb-24 20:55N 36°09' W 005°22'3 0.4
2018-Feb-24 14:07N 36°06' W 005°22'0 0.1
2018-Feb-24 13:58N 36°06' W 005°22'0 0.0
2018-Feb-24 13:30N 36°06' W 005°22'3 0.5
2018-Feb-24 07:14N 36°09' W 005°22'1 3.8
2018-Feb-24 07:00N 36°08' W 005°22'2 3.1
2018-Feb-24 06:28N 36°07' W 005°22'0 0.1
2018-Feb-24 05:58N 36°07' W 005°22'0 0.1
2018-Feb-24 05:29N 36°07' W 005°22'0 0.0
2018-Feb-24 04:55N 36°07' W 005°22'0 0.2
2018-Feb-24 04:28N 36°07' W 005°22'0 0.1
2018-Feb-24 03:58N 36°07' W 005°22'0 0.1
2018-Feb-24 03:28N 36°07' W 005°22'0 0.0
2018-Feb-24 02:55N 36°07' W 005°22'0 0.5
2018-Feb-24 02:30N 36°07' W 005°22'1 2.4
2018-Feb-24 02:00N 36°08' W 005°23'1 2.9
2018-Feb-24 01:29N 36°09' W 005°22'0 0.0
2018-Feb-24 00:59N 36°09' W 005°22'0 0.0
2018-Feb-24 00:29N 36°09' W 005°22'0 0.0
2018-Feb-23 23:56N 36°09' W 005°22'0 0.0
2018-Feb-23 23:20N 36°09' W 005°22'0 0.0
2018-Feb-23 23:00N 36°09' W 005°22'0 0.0
2018-Feb-23 22:23N 36°09' W 005°22'0 0.1
2018-Feb-23 22:00N 36°09' W 005°22'0 0.0
2018-Feb-23 21:29N 36°09' W 005°22'0 0.0
2018-Feb-23 20:56N 36°09' W 005°22'0 0.0
2018-Feb-23 20:23N 36°09' W 005°22'0 0.0
2018-Feb-23 19:56N 36°09' W 005°22'0 0.0
2018-Feb-23 19:11N 36°09' W 005°22'6 0.8
2018-Feb-23 11:53N 36°04' W 005°23'410.6
2018-Feb-23 11:30N 35°60' W 005°25'4 0.2
2018-Feb-22 08:58N 35°58' W 005°29'4 7.8
2018-Feb-22 08:29N 36°01' W 005°26'4 8.4
2018-Feb-22 07:59N 36°04' W 005°23'4 3.4
2018-Feb-22 06:48N 36°08' W 005°22'0 0.1
2018-Feb-22 06:30N 36°08' W 005°22'0 0.0
2018-Feb-22 05:57N 36°08' W 005°22'0 0.1
2018-Feb-22 04:40N 36°08' W 005°22'0 0.3
2018-Feb-22 04:30N 36°08' W 005°22'0 1.0
2018-Feb-22 04:00N 36°08' W 005°22'0 0.2
2018-Feb-22 03:27N 36°08' W 005°22'0 0.1
2018-Feb-22 02:58N 36°08' W 005°22'0 0.0
2018-Feb-22 02:27N 36°08' W 005°22'0 0.0
2018-Feb-22 02:00N 36°08' W 005°22'0 0.2
2018-Feb-22 01:30N 36°08' W 005°22'0 0.3
2018-Feb-22 01:00N 36°08' W 005°22'0 0.2
2018-Feb-22 00:30N 36°08' W 005°22'0 0.0
2018-Feb-21 23:53N 36°08' W 005°22'0 0.0
2018-Feb-21 23:30N 36°08' W 005°22'0 0.0
2018-Feb-21 23:00N 36°08' W 005°22'0 0.1
2018-Feb-21 22:30N 36°08' W 005°22'0 0.1
2018-Feb-21 21:59N 36°08' W 005°22'0 0.0
2018-Feb-21 21:25N 36°08' W 005°22'0 0.0
2018-Feb-21 20:51N 36°08' W 005°22'0 0.1
2018-Feb-21 20:30N 36°08' W 005°22'0 0.1
2018-Feb-21 19:49N 36°08' W 005°22'1 2.7
2018-Feb-21 19:31N 36°09' W 005°23'1 1.5
2018-Feb-21 18:59N 36°09' W 005°22'1 0.0
2018-Feb-21 03:17N 36°09' W 005°22'0 0.0
2018-Feb-21 02:49N 36°09' W 005°22'0 0.0
2018-Feb-21 02:15N 36°09' W 005°22'0 0.0
2018-Feb-21 01:49N 36°09' W 005°22'0 0.0
2018-Feb-21 01:25N 36°09' W 005°22'0 0.0
2018-Feb-21 00:55N 36°09' W 005°22'0 0.0
2018-Feb-20 22:53N 36°09' W 005°22'0 0.0
2018-Feb-20 20:39N 36°09' W 005°22'0 0.0
2018-Feb-20 20:14N 36°09' W 005°22'0 0.0
2018-Feb-20 19:50N 36°09' W 005°22'0 0.0
2018-Feb-20 19:19N 36°09' W 005°22'1 0.6
2018-Feb-20 16:51N 36°07' W 005°22'2 0.2
2018-Feb-20 03:55N 36°09' W 005°22'2 5.4
2018-Feb-20 03:30N 36°07' W 005°22'1 0.8
2018-Feb-20 02:52N 36°07' W 005°21'0 0.1
2018-Feb-20 00:46N 36°07' W 005°21'0 0.1
2018-Feb-20 00:28N 36°07' W 005°21'0 0.0
2018-Feb-19 23:58N 36°07' W 005°21'0 0.0
2018-Feb-19 23:28N 36°07' W 005°21'0 0.1
2018-Feb-19 22:52N 36°07' W 005°21'0 0.3
2018-Feb-19 22:19N 36°07' W 005°21'0 0.0
2018-Feb-19 21:52N 36°07' W 005°21'0 0.1
2018-Feb-19 20:43N 36°07' W 005°21'1 4.1
2018-Feb-19 20:30N 36°07' W 005°22'2 3.5
2018-Feb-19 19:57N 36°09' W 005°23'1 0.2
2018-Feb-19 16:27N 36°08' W 005°23'1 0.2
2018-Feb-19 10:12N 36°07' W 005°22'  
2018-Feb-15 23:17N 36°09' W 005°22'0 0.0
2018-Feb-15 22:56N 36°09' W 005°22'0 0.0
2018-Feb-15 22:29N 36°09' W 005°22'0 0.2
2018-Feb-15 22:01N 36°09' W 005°22'3 6.4
2018-Feb-15 21:31N 36°06' W 005°22'5 9.6
2018-Feb-15 21:00N 36°01' W 005°23'611.1
2018-Feb-15 20:28N 35°56' W 005°28'  

Dump ship's entire track history